createdAt,value
2023-03-26T00:02:21.539Z,11.52
2023-03-26T00:04:55.339Z,11.51
2023-03-26T00:07:23.589Z,11.47
2023-03-26T00:09:55.654Z,11.44
2023-03-26T00:12:25.942Z,11.40
2023-03-26T00:14:57.741Z,11.37
2023-03-26T00:17:26.256Z,11.34
2023-03-26T00:20:04.431Z,11.35
2023-03-26T00:22:35.660Z,11.35
2023-03-26T00:25:12.554Z,11.36
2023-03-26T00:27:45.745Z,11.36
2023-03-26T00:30:15.673Z,11.39
2023-03-26T00:32:53.714Z,11.42
2023-03-26T00:35:22.571Z,11.42
2023-03-26T00:37:53.315Z,11.45
2023-03-26T00:40:23.110Z,11.49
2023-03-26T00:42:53.434Z,11.51
2023-03-26T00:45:26.635Z,11.53
2023-03-26T00:47:56.372Z,11.55
2023-03-26T00:50:25.026Z,11.56
2023-03-26T00:53:02.417Z,11.59
2023-03-26T00:55:38.987Z,11.57
2023-03-26T00:58:14.318Z,11.54
2023-03-26T01:00:53.152Z,11.51
2023-03-26T01:03:38.000Z,11.54
2023-03-26T01:06:17.882Z,11.53
2023-03-26T01:08:50.316Z,11.54
2023-03-26T01:11:33.890Z,11.51
2023-03-26T01:14:02.154Z,11.48
2023-03-26T01:17:08.859Z,11.49
2023-03-26T01:19:52.113Z,11.47
2023-03-26T01:22:26.599Z,11.48
2023-03-26T01:25:00.549Z,11.45
2023-03-26T01:28:06.248Z,11.42
2023-03-26T01:30:44.171Z,11.42
2023-03-26T01:33:26.975Z,11.40
2023-03-26T01:36:12.299Z,11.38
2023-03-26T01:39:05.808Z,11.37
2023-03-26T01:41:49.546Z,11.37
2023-03-26T01:44:35.038Z,11.32
2023-03-26T01:47:07.610Z,11.23
2023-03-26T01:49:46.121Z,11.18
2023-03-26T01:52:24.590Z,11.12
2023-03-26T01:55:02.035Z,11.03
2023-03-26T01:57:39.831Z,10.99
2023-03-26T02:00:26.384Z,10.92
2023-03-26T02:03:00.844Z,10.80
2023-03-26T02:05:46.955Z,10.71
2023-03-26T02:08:37.503Z,10.62
2023-03-26T02:11:13.239Z,10.58
2023-03-26T02:13:49.506Z,10.58
2023-03-26T02:16:25.744Z,10.54
2023-03-26T02:19:00.055Z,10.44
2023-03-26T02:21:34.356Z,10.32
2023-03-26T02:24:07.268Z,10.20
2023-03-26T02:26:43.432Z,10.01
2023-03-26T02:29:16.216Z,9.87
2023-03-26T02:31:49.437Z,9.80
2023-03-26T02:34:20.016Z,9.74
2023-03-26T02:37:01.510Z,9.67
2023-03-26T02:39:32.442Z,9.62
2023-03-26T02:42:16.183Z,9.55
2023-03-26T02:44:50.716Z,9.50
2023-03-26T02:47:25.338Z,9.51
2023-03-26T02:49:58.112Z,9.50
2023-03-26T02:52:50.144Z,9.47
2023-03-26T02:55:21.188Z,9.45
2023-03-26T02:57:54.889Z,9.46
2023-03-26T03:00:37.813Z,9.44
2023-03-26T03:03:26.429Z,9.40
2023-03-26T03:06:10.114Z,9.38
2023-03-26T03:08:55.227Z,9.38
2023-03-26T03:11:41.785Z,9.34
2023-03-26T03:14:14.049Z,9.29
2023-03-26T03:16:48.816Z,9.27
2023-03-26T03:19:21.663Z,9.26
2023-03-26T03:21:57.111Z,9.23
2023-03-26T03:24:27.311Z,9.18
2023-03-26T03:27:02.787Z,9.17
2023-03-26T03:29:48.872Z,9.14
2023-03-26T03:32:46.970Z,9.10
2023-03-26T03:35:21.497Z,9.05
2023-03-26T03:38:06.287Z,9.02
2023-03-26T03:40:42.295Z,8.99
2023-03-26T03:43:17.143Z,8.98
2023-03-26T03:45:55.235Z,8.94
2023-03-26T03:48:46.869Z,8.87
2023-03-26T03:51:27.730Z,8.81
2023-03-26T03:54:15.058Z,8.77
2023-03-26T03:57:03.114Z,8.70
2023-03-26T03:59:52.158Z,8.63
2023-03-26T04:02:32.534Z,8.61
2023-03-26T04:05:10.828Z,8.57
2023-03-26T04:07:45.047Z,8.49
2023-03-26T04:10:41.070Z,8.43
2023-03-26T04:13:14.178Z,8.35
2023-03-26T04:16:07.516Z,8.30
2023-03-26T04:18:42.258Z,8.23
2023-03-26T04:21:16.085Z,8.20
2023-03-26T04:23:45.994Z,8.14
2023-03-26T04:26:58.197Z,8.10
2023-03-26T04:29:45.014Z,8.08
2023-03-26T04:32:30.338Z,8.04
2023-03-26T04:35:08.192Z,8.04
2023-03-26T04:37:46.300Z,8.12
2023-03-26T04:40:20.598Z,8.17
2023-03-26T04:43:02.625Z,8.22
2023-03-26T04:45:51.250Z,8.28
2023-03-26T04:48:30.599Z,8.32
2023-03-26T04:51:04.088Z,8.31
2023-03-26T04:53:39.124Z,8.33
2023-03-26T04:56:30.890Z,8.40
2023-03-26T04:59:32.918Z,8.40
2023-03-26T05:02:05.337Z,8.40
2023-03-26T05:04:45.097Z,8.40
2023-03-26T05:07:17.783Z,8.39
2023-03-26T05:09:55.310Z,8.39
2023-03-26T05:12:24.942Z,8.42
2023-03-26T05:15:03.333Z,8.48
2023-03-26T05:17:42.777Z,8.53
2023-03-26T05:20:38.381Z,8.59
2023-03-26T05:23:20.391Z,8.66
2023-03-26T05:26:01.761Z,8.72
2023-03-26T05:28:37.109Z,8.81
2023-03-26T05:31:25.368Z,8.87
2023-03-26T05:33:58.447Z,8.92
2023-03-26T05:36:41.097Z,8.99
2023-03-26T05:39:27.762Z,9.01
2023-03-26T05:42:06.891Z,9.01
2023-03-26T05:44:48.997Z,9.01
2023-03-26T05:47:26.494Z,8.99
2023-03-26T05:49:54.865Z,8.99
2023-03-26T05:52:26.768Z,8.99
2023-03-26T05:55:18.865Z,9.02
2023-03-26T05:58:16.603Z,9.00
2023-03-26T06:01:08.719Z,9.01
2023-03-26T06:04:00.830Z,8.98
2023-03-26T06:06:38.395Z,8.94
2023-03-26T06:09:09.952Z,8.92
2023-03-26T06:11:48.772Z,8.91
2023-03-26T06:14:25.554Z,8.93
2023-03-26T06:17:14.159Z,9.06
2023-03-26T06:20:09.159Z,9.25
2023-03-26T06:22:45.365Z,9.37
2023-03-26T06:25:24.196Z,9.54
2023-03-26T06:28:21.147Z,9.80
2023-03-26T06:31:19.521Z,9.97
2023-03-26T06:34:12.286Z,10.13
2023-03-26T06:36:45.271Z,10.24
2023-03-26T06:39:13.953Z,10.33
2023-03-26T06:41:53.389Z,10.36
2023-03-26T06:45:02.321Z,10.44
2023-03-26T06:47:45.474Z,10.62
2023-03-26T06:50:51.219Z,10.88
2023-03-26T06:53:44.587Z,11.09
2023-03-26T06:56:38.890Z,11.26
2023-03-26T06:59:32.460Z,11.45
2023-03-26T07:02:39.655Z,11.63
2023-03-26T07:05:30.110Z,11.74
2023-03-26T07:08:17.844Z,11.83
2023-03-26T07:11:08.444Z,11.89
2023-03-26T07:14:14.922Z,12.00
2023-03-26T07:17:05.123Z,12.13
2023-03-26T07:20:09.482Z,12.25
2023-03-26T07:22:42.125Z,12.33
2023-03-26T07:25:23.717Z,12.44
2023-03-26T07:29:04.056Z,12.56
2023-03-26T07:32:22.019Z,12.72
2023-03-26T07:35:22.483Z,12.90
2023-03-26T07:38:43.869Z,12.92
2023-03-26T07:41:56.176Z,12.80
2023-03-26T07:45:14.933Z,12.56
2023-03-26T07:48:22.427Z,12.44
2023-03-26T07:51:20.810Z,12.58
2023-03-26T07:54:12.568Z,12.72
2023-03-26T07:57:12.429Z,12.82
2023-03-26T08:00:22.263Z,12.91
2023-03-26T08:03:23.627Z,13.05
2023-03-26T08:06:14.805Z,13.31
2023-03-26T08:09:22.178Z,13.65
2023-03-26T08:12:26.538Z,14.08
2023-03-26T08:15:02.655Z,14.41
2023-03-26T08:17:55.937Z,14.59
2023-03-26T08:20:34.242Z,14.77
2023-03-26T08:23:37.566Z,15.03
2023-03-26T08:26:38.669Z,15.03
2023-03-26T08:29:34.800Z,14.97
2023-03-26T08:32:12.132Z,14.88
2023-03-26T08:34:43.636Z,14.85
2023-03-26T08:37:14.685Z,14.87
2023-03-26T08:39:43.370Z,15.00
2023-03-26T08:42:36.651Z,15.09
2023-03-26T08:45:29.792Z,14.96
2023-03-26T08:48:32.678Z,15.04
2023-03-26T08:51:12.184Z,15.14
2023-03-26T08:54:06.725Z,15.15
2023-03-26T08:57:03.637Z,15.05
2023-03-26T09:00:17.101Z,14.78
2023-03-26T09:03:12.403Z,14.39
2023-03-26T09:06:12.938Z,14.15
2023-03-26T09:08:54.935Z,13.96
2023-03-26T09:11:55.777Z,13.78
2023-03-26T09:14:40.648Z,13.72
2023-03-26T09:17:53.073Z,13.75
2023-03-26T09:21:03.522Z,13.86
2023-03-26T09:24:24.227Z,13.93
2023-03-26T09:27:18.619Z,14.00
2023-03-26T09:29:57.142Z,14.09
2023-03-26T09:32:50.307Z,14.08
2023-03-26T09:35:35.012Z,13.92
2023-03-26T09:38:18.391Z,13.81
2023-03-26T09:43:34.398Z,13.61
2023-03-26T09:47:23.858Z,13.22
2023-03-26T09:50:17.469Z,12.86
2023-03-26T09:52:59.557Z,12.77
2023-03-26T09:56:02.648Z,12.87
2023-03-26T09:58:52.434Z,12.96
2023-03-26T10:01:51.017Z,12.98
2023-03-26T10:05:01.436Z,13.03
2023-03-26T10:07:52.594Z,13.10
2023-03-26T10:10:44.830Z,13.16
2023-03-26T10:13:24.272Z,13.15
2023-03-26T10:16:31.981Z,13.03
2023-03-26T10:19:15.093Z,12.91
2023-03-26T10:22:17.991Z,12.86
2023-03-26T10:25:27.550Z,12.88
2023-03-26T10:28:14.336Z,12.92
2023-03-26T10:31:06.456Z,12.98
2023-03-26T10:34:03.526Z,13.06
2023-03-26T10:36:43.181Z,13.10
2023-03-26T10:39:38.980Z,13.13
2023-03-26T10:42:28.154Z,13.23
2023-03-26T10:45:07.330Z,13.31
2023-03-26T10:48:02.451Z,13.45
2023-03-26T10:50:54.686Z,13.61
2023-03-26T10:53:33.761Z,13.83
2023-03-26T10:56:20.579Z,13.87
2023-03-26T10:58:50.154Z,13.94
2023-03-26T11:01:31.829Z,13.97
2023-03-26T11:04:15.716Z,13.99
2023-03-26T11:06:47.473Z,14.09
2023-03-26T11:09:16.470Z,14.25
2023-03-26T11:12:26.482Z,14.28
2023-03-26T11:14:56.751Z,14.42
2023-03-26T11:17:40.353Z,14.53
2023-03-26T11:20:21.159Z,14.58
2023-03-26T11:23:13.601Z,14.51
2023-03-26T11:26:08.716Z,14.47
2023-03-26T11:29:30.999Z,14.56
2023-03-26T11:32:10.910Z,14.69
2023-03-26T11:35:04.573Z,14.61
2023-03-26T11:37:53.951Z,14.58
2023-03-26T11:40:42.245Z,14.58
2023-03-26T11:43:21.510Z,14.66
2023-03-26T11:45:52.739Z,14.79
2023-03-26T11:48:42.145Z,14.90
2023-03-26T11:51:18.181Z,14.97
2023-03-26T11:53:47.407Z,14.95
2023-03-26T11:56:28.375Z,14.97
2023-03-26T11:59:14.874Z,15.08
2023-03-26T12:02:00.368Z,15.19
2023-03-26T12:04:41.226Z,15.37
2023-03-26T12:07:24.023Z,15.48
2023-03-26T12:10:18.091Z,15.60
2023-03-26T12:12:52.296Z,15.83
2023-03-26T12:15:21.233Z,16.04
2023-03-26T12:17:56.593Z,16.24
2023-03-26T12:20:27.134Z,16.51
2023-03-26T12:22:59.757Z,16.65
2023-03-26T12:25:33.705Z,16.60
2023-03-26T12:28:14.265Z,16.50
2023-03-26T12:30:58.173Z,16.64
2023-03-26T12:33:29.029Z,16.83
2023-03-26T12:36:00.899Z,17.05
2023-03-26T12:38:35.929Z,17.31
2023-03-26T12:41:06.157Z,17.45
2023-03-26T12:44:54.488Z,17.34
2023-03-26T12:47:54.933Z,16.96
2023-03-26T12:49:25.102Z,16.72
2023-03-26T12:52:40.755Z,16.64
2023-03-26T12:55:30.940Z,16.88
2023-03-26T12:58:18.562Z,16.90
2023-03-26T13:01:02.648Z,16.60
2023-03-26T13:04:02.020Z,16.27
2023-03-26T13:06:59.564Z,16.20
2023-03-26T13:09:45.475Z,16.54
2023-03-26T13:12:17.846Z,16.70
2023-03-26T13:18:08.601Z,16.24
2023-03-26T13:21:09.202Z,16.22
2023-03-26T13:23:45.060Z,16.63
2023-03-26T13:26:33.416Z,17.29
2023-03-26T13:29:22.222Z,18.05
2023-03-26T13:32:20.575Z,18.54
2023-03-26T13:35:03.171Z,18.81
2023-03-26T13:37:35.330Z,19.01
2023-03-26T13:40:15.383Z,18.69
2023-03-26T13:43:01.286Z,18.08
2023-03-26T13:45:57.243Z,17.57
2023-03-26T13:48:40.122Z,17.26
2023-03-26T13:51:14.028Z,17.42
2023-03-26T13:54:32.482Z,17.99
2023-03-26T13:57:25.131Z,18.20
2023-03-26T14:00:15.269Z,17.83
2023-03-26T14:02:44.475Z,17.37
2023-03-26T14:05:27.776Z,17.01
2023-03-26T14:08:24.514Z,16.62
2023-03-26T14:11:03.555Z,16.24
2023-03-26T14:13:36.487Z,15.90
2023-03-26T14:16:17.242Z,15.58
2023-03-26T14:19:09.122Z,15.36
2023-03-26T14:22:13.734Z,15.04
2023-03-26T14:25:03.836Z,14.58
2023-03-26T14:28:04.459Z,14.40
2023-03-26T14:30:56.878Z,14.31
2023-03-26T14:34:01.529Z,14.11
2023-03-26T14:36:51.418Z,13.84
2023-03-26T14:39:32.691Z,13.57
2023-03-26T14:42:25.032Z,13.46
2023-03-26T14:45:11.637Z,13.69
2023-03-26T14:47:49.865Z,14.31
2023-03-26T14:50:47.012Z,14.85
2023-03-26T14:53:21.474Z,15.42
2023-03-26T14:55:54.518Z,15.63
2023-03-26T14:58:45.220Z,15.68
2023-03-26T15:01:23.073Z,15.71
2023-03-26T15:04:26.429Z,15.89
2023-03-26T15:07:20.873Z,16.34
2023-03-26T15:10:12.207Z,16.56
2023-03-26T15:13:18.598Z,16.38
2023-03-26T15:16:27.494Z,15.97
2023-03-26T15:19:20.122Z,15.59
2023-03-26T15:21:55.323Z,15.18
2023-03-26T15:24:27.587Z,14.72
2023-03-26T15:27:04.676Z,14.34
2023-03-26T15:30:00.196Z,13.95
2023-03-26T15:32:33.434Z,13.52
2023-03-26T15:35:06.187Z,13.13
2023-03-26T15:37:35.354Z,12.85
2023-03-26T15:40:19.152Z,12.60
2023-03-26T15:43:03.573Z,12.39
2023-03-26T15:45:42.306Z,12.27
2023-03-26T15:48:13.475Z,12.21
2023-03-26T15:51:16.776Z,12.16
2023-03-26T15:53:54.527Z,12.07
2023-03-26T15:56:36.125Z,11.92
2023-03-26T15:59:05.731Z,11.76
2023-03-26T16:01:49.677Z,11.58
2023-03-26T16:05:19.438Z,11.40
2023-03-26T16:08:15.037Z,11.18
2023-03-26T16:10:58.785Z,11.01
2023-03-26T16:13:37.911Z,10.90
2023-03-26T16:16:14.957Z,10.85
2023-03-26T16:18:48.596Z,10.77
2023-03-26T16:21:31.994Z,10.70
2023-03-26T16:24:05.882Z,10.60
2023-03-26T16:26:44.177Z,10.51
2023-03-26T16:29:27.107Z,10.39
2023-03-26T16:32:15.078Z,10.32
2023-03-26T16:35:02.182Z,10.27
2023-03-26T16:37:38.598Z,10.19
2023-03-26T16:40:20.965Z,10.10
2023-03-26T16:43:17.064Z,10.01
2023-03-26T16:45:56.500Z,9.92
2023-03-26T16:49:11.884Z,9.86
2023-03-26T16:52:08.749Z,9.83
2023-03-26T16:54:47.352Z,9.82
2023-03-26T16:57:30.065Z,9.83
2023-03-26T17:00:35.007Z,9.85
2023-03-26T17:03:39.309Z,9.85
2023-03-26T17:06:19.170Z,9.81
2023-03-26T17:09:53.097Z,9.77
2023-03-26T17:12:54.035Z,9.81
2023-03-26T17:16:04.092Z,9.86
2023-03-26T17:18:39.035Z,9.85
2023-03-26T17:21:18.503Z,9.80
2023-03-26T17:24:04.368Z,9.72
2023-03-26T17:26:39.076Z,9.63
2023-03-26T17:29:10.217Z,9.55
2023-03-26T17:31:45.417Z,9.51
2023-03-26T17:34:49.475Z,9.50
2023-03-26T17:37:24.312Z,9.42
2023-03-26T17:40:01.791Z,9.33
2023-03-26T17:42:36.133Z,9.20
2023-03-26T17:45:25.917Z,9.05
2023-03-26T17:48:02.652Z,8.91
2023-03-26T17:50:54.390Z,8.81
2023-03-26T17:53:29.235Z,8.71
2023-03-26T17:56:03.928Z,8.65
2023-03-26T17:58:36.745Z,8.57
2023-03-26T18:01:24.302Z,8.47
2023-03-26T18:03:56.416Z,8.33
2023-03-26T18:06:43.764Z,8.19
2023-03-26T18:09:34.672Z,8.04
2023-03-26T18:12:24.973Z,7.94
2023-03-26T18:15:31.813Z,7.90
2023-03-26T18:18:18.286Z,7.84
2023-03-26T18:20:48.163Z,7.76
2023-03-26T18:23:29.035Z,7.68
2023-03-26T18:26:22.406Z,7.59
2023-03-26T18:28:54.046Z,7.53
2023-03-26T18:31:28.252Z,7.54
2023-03-26T18:34:06.781Z,7.53
2023-03-26T18:36:35.168Z,7.49
2023-03-26T18:39:04.479Z,7.43
2023-03-26T18:41:42.222Z,7.34
2023-03-26T18:44:16.170Z,7.27
2023-03-26T18:46:45.989Z,7.24
2023-03-26T18:49:15.911Z,7.22
2023-03-26T18:51:56.100Z,7.18
2023-03-26T18:54:25.668Z,7.13
2023-03-26T18:56:55.503Z,7.05
2023-03-26T18:59:32.705Z,6.97
2023-03-26T19:02:04.651Z,6.92
2023-03-26T19:04:34.246Z,6.89
2023-03-26T19:07:04.282Z,6.86
2023-03-26T19:09:33.760Z,6.80
2023-03-26T19:12:08.585Z,6.74
2023-03-26T19:14:57.757Z,6.68
2023-03-26T19:17:34.969Z,6.64
2023-03-26T19:20:10.040Z,6.65
2023-03-26T19:22:41.705Z,6.65
2023-03-26T19:25:10.529Z,6.63
2023-03-26T19:27:38.698Z,6.56
2023-03-26T19:30:14.376Z,6.48
2023-03-26T19:32:44.095Z,6.46
2023-03-26T19:35:20.986Z,6.45
2023-03-26T19:37:50.957Z,6.40
2023-03-26T19:40:28.011Z,6.33
2023-03-26T19:42:59.492Z,6.30
2023-03-26T19:45:27.869Z,6.31
2023-03-26T19:48:11.660Z,6.29
2023-03-26T19:50:53.127Z,6.24
2023-03-26T19:53:25.754Z,6.20
2023-03-26T19:55:58.940Z,6.21
2023-03-26T19:58:27.494Z,6.22
2023-03-26T20:00:59.605Z,6.20
2023-03-26T20:03:43.373Z,6.16
2023-03-26T20:06:13.017Z,6.12
2023-03-26T20:08:46.782Z,6.10
2023-03-26T20:11:17.351Z,6.09
2023-03-26T20:13:46.624Z,6.12
2023-03-26T20:16:24.952Z,6.14
2023-03-26T20:18:57.968Z,6.13
2023-03-26T20:21:29.666Z,6.10
2023-03-26T20:23:59.375Z,6.08
2023-03-26T20:26:28.073Z,6.06
2023-03-26T20:28:56.545Z,6.06
2023-03-26T20:31:26.813Z,6.03
2023-03-26T20:33:55.243Z,5.99
2023-03-26T20:36:34.147Z,5.95
2023-03-26T20:39:08.196Z,5.94
2023-03-26T20:41:41.902Z,5.96
2023-03-26T20:44:15.808Z,5.95
2023-03-26T20:46:44.328Z,5.92
2023-03-26T20:49:13.265Z,5.89
2023-03-26T20:51:45.950Z,5.86
2023-03-26T20:54:22.209Z,5.89
2023-03-26T20:56:51.259Z,5.92
2023-03-26T20:59:22.604Z,5.92
2023-03-26T21:01:51.648Z,5.88
2023-03-26T21:04:20.761Z,5.80
2023-03-26T21:06:49.122Z,5.71
2023-03-26T21:09:19.239Z,5.68
2023-03-26T21:11:52.455Z,5.68
2023-03-26T21:14:25.827Z,5.69
2023-03-26T21:16:55.797Z,5.70
2023-03-26T21:19:24.535Z,5.68
2023-03-26T21:21:59.376Z,5.63
2023-03-26T21:24:34.984Z,5.59
2023-03-26T21:27:29.509Z,5.57
2023-03-26T21:29:58.431Z,5.56
2023-03-26T21:32:27.479Z,5.53
2023-03-26T21:34:59.660Z,5.48
2023-03-26T21:37:29.168Z,5.42
2023-03-26T21:40:00.155Z,5.39
2023-03-26T21:42:29.559Z,5.37
2023-03-26T21:44:58.223Z,5.33
2023-03-26T21:47:28.594Z,5.30
2023-03-26T21:49:58.131Z,5.25
2023-03-26T21:52:26.817Z,5.24
2023-03-26T21:55:03.827Z,5.25
2023-03-26T21:57:48.469Z,5.25
2023-03-26T22:02:23.292Z,5.21
2023-03-26T22:04:56.395Z,5.10
2023-03-26T22:07:52.756Z,5.07
2023-03-26T22:10:21.770Z,5.06
2023-03-26T22:12:54.200Z,5.05
2023-03-26T22:15:22.782Z,5.03
2023-03-26T22:17:54.374Z,4.99
2023-03-26T22:20:25.440Z,4.93
2023-03-26T22:22:55.416Z,4.90
2023-03-26T22:25:23.893Z,4.90
2023-03-26T22:27:57.785Z,4.89
2023-03-26T22:30:27.408Z,4.88
2023-03-26T22:32:57.144Z,4.84
2023-03-26T22:35:26.425Z,4.78
2023-03-26T22:38:00.360Z,4.77
2023-03-26T22:40:30.232Z,4.78
2023-03-26T22:42:58.664Z,4.78
2023-03-26T22:45:30.377Z,4.77
2023-03-26T22:48:03.003Z,4.71
2023-03-26T22:50:33.164Z,4.65
2023-03-26T22:53:05.239Z,4.61
2023-03-26T22:55:33.918Z,4.59
2023-03-26T22:58:06.193Z,4.58
2023-03-26T23:00:37.035Z,4.57
2023-03-26T23:03:06.569Z,4.53
2023-03-26T23:05:39.016Z,4.48
2023-03-26T23:08:10.379Z,4.49
2023-03-26T23:10:43.111Z,4.51
2023-03-26T23:13:11.924Z,4.54
2023-03-26T23:15:41.535Z,4.54
2023-03-26T23:18:10.272Z,4.52
2023-03-26T23:20:40.144Z,4.48
2023-03-26T23:23:08.638Z,4.45
2023-03-26T23:25:41.094Z,4.42
2023-03-26T23:28:10.508Z,4.40
2023-03-26T23:30:38.778Z,4.35
2023-03-26T23:33:09.242Z,4.30
2023-03-26T23:35:37.967Z,4.26
2023-03-26T23:38:08.595Z,4.24
2023-03-26T23:40:38.234Z,4.23
2023-03-26T23:43:07.031Z,4.23
2023-03-26T23:45:35.215Z,4.20
2023-03-26T23:48:05.438Z,4.15
2023-03-26T23:50:33.699Z,4.13
2023-03-26T23:53:02.690Z,4.14
2023-03-26T23:55:30.972Z,4.15
2023-03-26T23:58:00.776Z,4.13
